sensor_id;sensor_type;location;lat;lon;timestamp;temperature;humidity
26270;DHT22;15937;50.612;6.656;2022-08-11T00:02:35;19.20;99.80
26270;DHT22;15937;50.612;6.656;2022-08-11T00:06:38;19.20;99.90
26270;DHT22;15937;50.612;6.656;2022-08-11T00:10:40;19.20;99.90
26270;DHT22;15937;50.612;6.656;2022-08-11T00:14:42;19.10;99.90
26270;DHT22;15937;50.612;6.656;2022-08-11T00:18:45;18.80;99.90
26270;DHT22;15937;50.612;6.656;2022-08-11T00:22:47;18.80;99.90
26270;DHT22;15937;50.612;6.656;2022-08-11T00:26:51;18.80;99.90
26270;DHT22;15937;50.612;6.656;2022-08-11T00:30:53;18.60;99.90
26270;DHT22;15937;50.612;6.656;2022-08-11T00:34:56;18.70;99.90
26270;DHT22;15937;50.612;6.656;2022-08-11T00:39:20;18.60;99.90
26270;DHT22;15937;50.612;6.656;2022-08-11T00:47:53;18.70;99.90
26270;DHT22;15937;50.612;6.656;2022-08-11T01:00:31;18.50;99.90
26270;DHT22;15937;50.612;6.656;2022-08-11T01:46:27;17.50;99.90
26270;DHT22;15937;50.612;6.656;2022-08-11T01:54:55;17.40;99.90
26270;DHT22;15937;50.612;6.656;2022-08-11T01:59:13;17.10;99.90
26270;DHT22;15937;50.612;6.656;2022-08-11T02:03:23;17.30;99.90
26270;DHT22;15937;50.612;6.656;2022-08-11T02:08:13;17.40;99.90
26270;DHT22;15937;50.612;6.656;2022-08-11T02:11:57;17.30;99.90
26270;DHT22;15937;50.612;6.656;2022-08-11T02:20:34;17.00;99.90
26270;DHT22;15937;50.612;6.656;2022-08-11T02:25:01;16.90;99.90
26270;DHT22;15937;50.612;6.656;2022-08-11T02:33:21;16.90;99.90
26270;DHT22;15937;50.612;6.656;2022-08-11T02:37:33;16.80;99.90
26270;DHT22;15937;50.612;6.656;2022-08-11T02:41:49;17.10;99.90
26270;DHT22;15937;50.612;6.656;2022-08-11T02:46:35;16.80;99.90
26270;DHT22;15937;50.612;6.656;2022-08-11T02:50:46;16.80;99.90
26270;DHT22;15937;50.612;6.656;2022-08-11T02:55:09;16.60;99.90
26270;DHT22;15937;50.612;6.656;2022-08-11T02:59:48;16.80;99.90
26270;DHT22;15937;50.612;6.656;2022-08-11T03:04:09;16.40;99.90
26270;DHT22;15937;50.612;6.656;2022-08-11T03:17:28;16.20;99.90
26270;DHT22;15937;50.612;6.656;2022-08-11T03:21:32;16.20;99.90
26270;DHT22;15937;50.612;6.656;2022-08-11T03:30:24;16.30;99.90
26270;DHT22;15937;50.612;6.656;2022-08-11T03:34:28;16.40;99.90
26270;DHT22;15937;50.612;6.656;2022-08-11T03:38:37;16.10;99.90
26270;DHT22;15937;50.612;6.656;2022-08-11T03:42:57;16.10;99.90
26270;DHT22;15937;50.612;6.656;2022-08-11T03:51:26;16.00;99.90
26270;DHT22;15937;50.612;6.656;2022-08-11T03:56:12;16.10;99.90
26270;DHT22;15937;50.612;6.656;2022-08-11T04:17:32;15.90;99.90
26270;DHT22;15937;50.612;6.656;2022-08-11T04:30:26;15.50;99.90
26270;DHT22;15937;50.612;6.656;2022-08-11T04:39:13;15.80;99.90
26270;DHT22;15937;50.612;6.656;2022-08-11T04:56:38;16.10;99.90
26270;DHT22;15937;50.612;6.656;2022-08-11T05:09:47;16.30;99.90
26270;DHT22;15937;50.612;6.656;2022-08-11T05:18:32;16.70;99.90
26270;DHT22;15937;50.612;6.656;2022-08-11T05:22:53;16.80;99.90
26270;DHT22;15937;50.612;6.656;2022-08-11T05:27:14;16.90;99.90
26270;DHT22;15937;50.612;6.656;2022-08-11T05:31:36;17.20;99.90
26270;DHT22;15937;50.612;6.656;2022-08-11T05:40:18;17.40;99.90
26270;DHT22;15937;50.612;6.656;2022-08-11T05:44:38;17.70;99.90
26270;DHT22;15937;50.612;6.656;2022-08-11T05:48:58;17.80;99.90
26270;DHT22;15937;50.612;6.656;2022-08-11T05:53:19;18.10;99.90
26270;DHT22;15937;50.612;6.656;2022-08-11T05:57:46;18.50;99.90
26270;DHT22;15937;50.612;6.656;2022-08-11T06:01:59;18.70;99.90
26270;DHT22;15937;50.612;6.656;2022-08-11T06:06:01;19.20;99.90
26270;DHT22;15937;50.612;6.656;2022-08-11T06:10:08;19.20;99.90
26270;DHT22;15937;50.612;6.656;2022-08-11T06:14:11;19.40;99.90
26270;DHT22;15937;50.612;6.656;2022-08-11T06:18:16;19.50;99.90
26270;DHT22;15937;50.612;6.656;2022-08-11T06:22:20;19.30;99.90
26270;DHT22;15937;50.612;6.656;2022-08-11T06:26:25;19.30;99.90
26270;DHT22;15937;50.612;6.656;2022-08-11T06:38:59;19.90;99.90
26270;DHT22;15937;50.612;6.656;2022-08-11T06:43:17;20.10;99.90
26270;DHT22;15937;50.612;6.656;2022-08-11T06:47:20;21.00;99.90
26270;DHT22;15937;50.612;6.656;2022-08-11T06:51:22;21.30;99.90
26270;DHT22;15937;50.612;6.656;2022-08-11T06:55:24;21.30;99.90
26270;DHT22;15937;50.612;6.656;2022-08-11T06:59:59;22.10;99.90
26270;DHT22;15937;50.612;6.656;2022-08-11T07:04:23;22.30;97.20
26270;DHT22;15937;50.612;6.656;2022-08-11T07:13:00;23.00;93.90
26270;DHT22;15937;50.612;6.656;2022-08-11T07:17:44;23.50;90.60
26270;DHT22;15937;50.612;6.656;2022-08-11T07:21:50;23.50;90.90
26270;DHT22;15937;50.612;6.656;2022-08-11T07:26:11;23.50;90.20
26270;DHT22;15937;50.612;6.656;2022-08-11T07:30:33;23.80;90.00
26270;DHT22;15937;50.612;6.656;2022-08-11T07:34:39;24.00;87.30
26270;DHT22;15937;50.612;6.656;2022-08-11T07:38:50;24.10;86.70
26270;DHT22;15937;50.612;6.656;2022-08-11T07:42:53;24.30;85.20
26270;DHT22;15937;50.612;6.656;2022-08-11T07:46:56;24.40;85.60
26270;DHT22;15937;50.612;6.656;2022-08-11T07:51:17;24.30;82.20
26270;DHT22;15937;50.612;6.656;2022-08-11T07:55:38;23.90;83.70
26270;DHT22;15937;50.612;6.656;2022-08-11T07:59:52;24.10;82.30
26270;DHT22;15937;50.612;6.656;2022-08-11T08:04:17;24.30;82.90
26270;DHT22;15937;50.612;6.656;2022-08-11T08:08:38;24.50;80.40
26270;DHT22;15937;50.612;6.656;2022-08-11T08:13:01;24.40;80.20
26270;DHT22;15937;50.612;6.656;2022-08-11T08:17:21;25.20;80.90
26270;DHT22;15937;50.612;6.656;2022-08-11T08:21:42;25.40;77.90
26270;DHT22;15937;50.612;6.656;2022-08-11T08:25:46;25.60;77.80
26270;DHT22;15937;50.612;6.656;2022-08-11T08:29:48;26.00;75.00
26270;DHT22;15937;50.612;6.656;2022-08-11T08:34:08;26.00;75.20
26270;DHT22;15937;50.612;6.656;2022-08-11T08:38:11;26.20;74.60
26270;DHT22;15937;50.612;6.656;2022-08-11T08:42:16;26.00;73.60
26270;DHT22;15937;50.612;6.656;2022-08-11T08:46:24;26.70;72.10
26270;DHT22;15937;50.612;6.656;2022-08-11T08:50:31;27.10;70.20
26270;DHT22;15937;50.612;6.656;2022-08-11T08:54:55;27.20;67.60
26270;DHT22;15937;50.612;6.656;2022-08-11T08:59:00;27.30;65.80
26270;DHT22;15937;50.612;6.656;2022-08-11T09:03:02;27.50;63.80
26270;DHT22;15937;50.612;6.656;2022-08-11T09:07:24;27.80;64.00
26270;DHT22;15937;50.612;6.656;2022-08-11T09:11:30;27.80;62.80
26270;DHT22;15937;50.612;6.656;2022-08-11T09:15:50;27.70;60.30
26270;DHT22;15937;50.612;6.656;2022-08-11T09:19:58;27.70;57.60
26270;DHT22;15937;50.612;6.656;2022-08-11T09:24:02;27.80;57.70
26270;DHT22;15937;50.612;6.656;2022-08-11T09:28:27;27.90;57.10
26270;DHT22;15937;50.612;6.656;2022-08-11T09:32:32;28.00;55.60
26270;DHT22;15937;50.612;6.656;2022-08-11T09:36:34;28.30;56.10
26270;DHT22;15937;50.612;6.656;2022-08-11T09:40:54;28.20;54.80
26270;DHT22;15937;50.612;6.656;2022-08-11T09:44:58;28.10;55.30
26270;DHT22;15937;50.612;6.656;2022-08-11T09:49:02;28.20;54.70
26270;DHT22;15937;50.612;6.656;2022-08-11T09:53:04;28.10;54.50
26270;DHT22;15937;50.612;6.656;2022-08-11T09:57:27;27.90;54.50
26270;DHT22;15937;50.612;6.656;2022-08-11T10:01:49;28.20;55.40
26270;DHT22;15937;50.612;6.656;2022-08-11T10:05:57;28.20;55.40
26270;DHT22;15937;50.612;6.656;2022-08-11T10:10:19;28.10;54.60
26270;DHT22;15937;50.612;6.656;2022-08-11T10:14:27;28.50;54.90
26270;DHT22;15937;50.612;6.656;2022-08-11T10:18:49;28.40;54.50
26270;DHT22;15937;50.612;6.656;2022-08-11T10:22:56;28.50;54.20
26270;DHT22;15937;50.612;6.656;2022-08-11T10:27:17;28.60;53.90
26270;DHT22;15937;50.612;6.656;2022-08-11T10:31:19;28.80;54.80
26270;DHT22;15937;50.612;6.656;2022-08-11T10:35:58;28.70;53.50
26270;DHT22;15937;50.612;6.656;2022-08-11T10:40:00;28.70;52.40
26270;DHT22;15937;50.612;6.656;2022-08-11T10:44:04;28.90;53.20
26270;DHT22;15937;50.612;6.656;2022-08-11T10:48:06;28.80;52.80
26270;DHT22;15937;50.612;6.656;2022-08-11T10:52:15;28.90;52.40
26270;DHT22;15937;50.612;6.656;2022-08-11T10:56:36;28.70;52.50
26270;DHT22;15937;50.612;6.656;2022-08-11T11:00:57;29.00;52.80
26270;DHT22;15937;50.612;6.656;2022-08-11T11:05:02;28.90;52.30
26270;DHT22;15937;50.612;6.656;2022-08-11T11:09:14;29.00;52.70
26270;DHT22;15937;50.612;6.656;2022-08-11T11:13:17;29.00;51.60
26270;DHT22;15937;50.612;6.656;2022-08-11T11:18:10;29.00;51.80
26270;DHT22;15937;50.612;6.656;2022-08-11T11:22:14;29.10;51.50
26270;DHT22;15937;50.612;6.656;2022-08-11T11:26:52;29.20;52.00
26270;DHT22;15937;50.612;6.656;2022-08-11T11:31:11;29.20;52.30
26270;DHT22;15937;50.612;6.656;2022-08-11T11:36:00;29.30;52.40
26270;DHT22;15937;50.612;6.656;2022-08-11T11:39:52;29.40;52.00
26270;DHT22;15937;50.612;6.656;2022-08-11T11:43:55;29.20;50.70
26270;DHT22;15937;50.612;6.656;2022-08-11T11:48:02;29.60;52.00
26270;DHT22;15937;50.612;6.656;2022-08-11T11:52:03;29.70;51.30
26270;DHT22;15937;50.612;6.656;2022-08-11T11:56:07;29.70;52.30
26270;DHT22;15937;50.612;6.656;2022-08-11T12:00:12;29.70;51.70
26270;DHT22;15937;50.612;6.656;2022-08-11T12:04:35;29.70;51.40
26270;DHT22;15937;50.612;6.656;2022-08-11T12:08:37;29.90;51.10
26270;DHT22;15937;50.612;6.656;2022-08-11T12:12:39;29.70;50.10
26270;DHT22;15937;50.612;6.656;2022-08-11T12:16:59;29.20;51.60
26270;DHT22;15937;50.612;6.656;2022-08-11T12:21:02;30.00;50.90
26270;DHT22;15937;50.612;6.656;2022-08-11T12:25:06;30.00;50.40
26270;DHT22;15937;50.612;6.656;2022-08-11T12:29:26;29.90;49.80
26270;DHT22;15937;50.612;6.656;2022-08-11T12:33:28;30.00;50.00
26270;DHT22;15937;50.612;6.656;2022-08-11T12:37:31;30.10;50.20
26270;DHT22;15937;50.612;6.656;2022-08-11T12:41:36;29.90;49.10
26270;DHT22;15937;50.612;6.656;2022-08-11T12:45:58;30.00;48.80
26270;DHT22;15937;50.612;6.656;2022-08-11T12:50:00;30.30;49.30
26270;DHT22;15937;50.612;6.656;2022-08-11T12:54:28;30.40;49.40
26270;DHT22;15937;50.612;6.656;2022-08-11T12:58:31;29.90;49.80
26270;DHT22;15937;50.612;6.656;2022-08-11T13:02:33;30.10;49.30
26270;DHT22;15937;50.612;6.656;2022-08-11T13:06:53;29.80;49.00
26270;DHT22;15937;50.612;6.656;2022-08-11T13:10:59;30.10;48.60
26270;DHT22;15937;50.612;6.656;2022-08-11T13:15:20;30.40;48.50
26270;DHT22;15937;50.612;6.656;2022-08-11T13:19:30;30.20;49.10
26270;DHT22;15937;50.612;6.656;2022-08-11T13:23:41;30.20;49.10
26270;DHT22;15937;50.612;6.656;2022-08-11T13:28:02;30.50;48.20
26270;DHT22;15937;50.612;6.656;2022-08-11T13:32:05;30.40;48.50
26270;DHT22;15937;50.612;6.656;2022-08-11T13:36:07;30.60;48.70
26270;DHT22;15937;50.612;6.656;2022-08-11T13:40:09;30.40;48.20
26270;DHT22;15937;50.612;6.656;2022-08-11T13:44:12;30.10;49.70
26270;DHT22;15937;50.612;6.656;2022-08-11T13:48:20;30.40;49.20
26270;DHT22;15937;50.612;6.656;2022-08-11T13:52:30;30.40;48.50
26270;DHT22;15937;50.612;6.656;2022-08-11T13:56:32;30.60;48.60
26270;DHT22;15937;50.612;6.656;2022-08-11T14:00:36;30.40;48.10
26270;DHT22;15937;50.612;6.656;2022-08-11T14:04:56;30.10;48.50
26270;DHT22;15937;50.612;6.656;2022-08-11T14:09:00;29.90;48.40
26270;DHT22;15937;50.612;6.656;2022-08-11T14:13:09;30.10;47.90
26270;DHT22;15937;50.612;6.656;2022-08-11T14:18:06;30.20;47.90
26270;DHT22;15937;50.612;6.656;2022-08-11T14:22:09;30.10;47.60
26270;DHT22;15937;50.612;6.656;2022-08-11T14:26:14;30.20;47.70
26270;DHT22;15937;50.612;6.656;2022-08-11T14:30:29;30.30;48.20
26270;DHT22;15937;50.612;6.656;2022-08-11T14:34:49;30.10;48.20
26270;DHT22;15937;50.612;6.656;2022-08-11T14:38:51;30.10;47.20
26270;DHT22;15937;50.612;6.656;2022-08-11T14:42:54;30.10;47.90
26270;DHT22;15937;50.612;6.656;2022-08-11T14:47:14;29.90;47.70
26270;DHT22;15937;50.612;6.656;2022-08-11T14:51:25;30.00;48.10
26270;DHT22;15937;50.612;6.656;2022-08-11T14:55:28;30.10;47.60
26270;DHT22;15937;50.612;6.656;2022-08-11T14:59:49;30.10;47.80
26270;DHT22;15937;50.612;6.656;2022-08-11T15:03:51;30.20;48.60
26270;DHT22;15937;50.612;6.656;2022-08-11T15:08:22;30.30;48.20
26270;DHT22;15937;50.612;6.656;2022-08-11T15:12:44;30.00;47.20
26270;DHT22;15937;50.612;6.656;2022-08-11T15:16:47;30.20;47.40
26270;DHT22;15937;50.612;6.656;2022-08-11T15:21:12;30.10;47.90
26270;DHT22;15937;50.612;6.656;2022-08-11T15:25:34;30.20;49.10
26270;DHT22;15937;50.612;6.656;2022-08-11T15:29:37;30.30;47.90
26270;DHT22;15937;50.612;6.656;2022-08-11T15:34:00;30.10;47.40
26270;DHT22;15937;50.612;6.656;2022-08-11T15:38:21;30.10;47.60
26270;DHT22;15937;50.612;6.656;2022-08-11T15:42:23;30.20;46.90
26270;DHT22;15937;50.612;6.656;2022-08-11T15:47:08;30.30;47.50
26270;DHT22;15937;50.612;6.656;2022-08-11T15:51:27;30.30;46.70
26270;DHT22;15937;50.612;6.656;2022-08-11T15:55:30;30.20;45.60
26270;DHT22;15937;50.612;6.656;2022-08-11T15:59:35;30.40;46.70
26270;DHT22;15937;50.612;6.656;2022-08-11T16:03:59;30.40;46.20
26270;DHT22;15937;50.612;6.656;2022-08-11T16:08:18;30.50;47.10
26270;DHT22;15937;50.612;6.656;2022-08-11T16:12:39;30.60;46.60
26270;DHT22;15937;50.612;6.656;2022-08-11T16:16:45;30.60;46.30
26270;DHT22;15937;50.612;6.656;2022-08-11T16:20:53;30.60;45.20
26270;DHT22;15937;50.612;6.656;2022-08-11T16:24:59;30.50;44.70
26270;DHT22;15937;50.612;6.656;2022-08-11T16:29:25;30.50;45.50
26270;DHT22;15937;50.612;6.656;2022-08-11T16:33:28;30.90;46.30
26270;DHT22;15937;50.612;6.656;2022-08-11T16:37:54;30.90;45.60
26270;DHT22;15937;50.612;6.656;2022-08-11T16:42:22;30.70;44.90
26270;DHT22;15937;50.612;6.656;2022-08-11T16:47:24;31.00;45.00
26270;DHT22;15937;50.612;6.656;2022-08-11T16:52:03;30.70;43.90
26270;DHT22;15937;50.612;6.656;2022-08-11T16:56:31;30.90;43.20
26270;DHT22;15937;50.612;6.656;2022-08-11T17:00:34;31.00;43.50
26270;DHT22;15937;50.612;6.656;2022-08-11T17:04:42;31.00;44.10
26270;DHT22;15937;50.612;6.656;2022-08-11T17:09:06;31.10;44.20
26270;DHT22;15937;50.612;6.656;2022-08-11T17:13:41;31.30;43.10
26270;DHT22;15937;50.612;6.656;2022-08-11T17:17:44;31.30;43.70
26270;DHT22;15937;50.612;6.656;2022-08-11T17:21:47;31.40;43.30
26270;DHT22;15937;50.612;6.656;2022-08-11T17:26:34;31.50;43.10
26270;DHT22;15937;50.612;6.656;2022-08-11T17:30:55;31.80;42.80
26270;DHT22;15937;50.612;6.656;2022-08-11T17:35:26;32.10;42.80
26270;DHT22;15937;50.612;6.656;2022-08-11T17:39:32;31.90;42.80
26270;DHT22;15937;50.612;6.656;2022-08-11T17:43:36;31.50;43.60
26270;DHT22;15937;50.612;6.656;2022-08-11T17:47:57;31.40;43.80
26270;DHT22;15937;50.612;6.656;2022-08-11T17:52:19;31.60;43.10
26270;DHT22;15937;50.612;6.656;2022-08-11T17:56:41;31.50;43.80
26270;DHT22;15937;50.612;6.656;2022-08-11T18:01:01;31.40;44.10
26270;DHT22;15937;50.612;6.656;2022-08-11T18:05:10;31.00;44.50
26270;DHT22;15937;50.612;6.656;2022-08-11T18:09:14;30.60;45.20
26270;DHT22;15937;50.612;6.656;2022-08-11T18:13:36;30.50;45.10
26270;DHT22;15937;50.612;6.656;2022-08-11T18:17:57;30.10;45.60
26270;DHT22;15937;50.612;6.656;2022-08-11T18:22:27;29.80;46.40
26270;DHT22;15937;50.612;6.656;2022-08-11T18:26:49;29.60;46.30
26270;DHT22;15937;50.612;6.656;2022-08-11T18:31:10;29.40;46.80
26270;DHT22;15937;50.612;6.656;2022-08-11T18:35:34;29.20;47.30
26270;DHT22;15937;50.612;6.656;2022-08-11T18:40:01;29.10;48.40
26270;DHT22;15937;50.612;6.656;2022-08-11T18:44:27;28.90;50.30
26270;DHT22;15937;50.612;6.656;2022-08-11T18:48:58;28.70;50.00
26270;DHT22;15937;50.612;6.656;2022-08-11T18:53:23;28.50;51.20
26270;DHT22;15937;50.612;6.656;2022-08-11T18:57:47;28.30;51.80
26270;DHT22;15937;50.612;6.656;2022-08-11T19:02:09;28.20;52.60
26270;DHT22;15937;50.612;6.656;2022-08-11T19:06:49;28.00;51.90
26270;DHT22;15937;50.612;6.656;2022-08-11T19:11:11;27.80;53.00
26270;DHT22;15937;50.612;6.656;2022-08-11T19:15:32;27.60;53.30
26270;DHT22;15937;50.612;6.656;2022-08-11T19:19:54;27.30;52.70
26270;DHT22;15937;50.612;6.656;2022-08-11T19:24:16;27.00;54.40
26270;DHT22;15937;50.612;6.656;2022-08-11T19:28:38;27.00;53.60
26270;DHT22;15937;50.612;6.656;2022-08-11T19:33:04;27.00;54.20
26270;DHT22;15937;50.612;6.656;2022-08-11T19:37:48;26.50;56.40
26270;DHT22;15937;50.612;6.656;2022-08-11T19:42:09;26.40;55.30
26270;DHT22;15937;50.612;6.656;2022-08-11T19:46:31;25.60;56.80
26270;DHT22;15937;50.612;6.656;2022-08-11T19:50:52;25.70;56.30
26270;DHT22;15937;50.612;6.656;2022-08-11T19:55:12;25.50;57.00
26270;DHT22;15937;50.612;6.656;2022-08-11T19:59:33;25.10;58.00
26270;DHT22;15937;50.612;6.656;2022-08-11T20:03:54;24.90;58.80
26270;DHT22;15937;50.612;6.656;2022-08-11T20:08:15;24.50;59.60
26270;DHT22;15937;50.612;6.656;2022-08-11T20:12:36;24.20;60.90
26270;DHT22;15937;50.612;6.656;2022-08-11T20:16:57;24.20;62.50
26270;DHT22;15937;50.612;6.656;2022-08-11T20:21:19;24.00;62.20
26270;DHT22;15937;50.612;6.656;2022-08-11T20:25:40;23.90;61.90
26270;DHT22;15937;50.612;6.656;2022-08-11T20:30:18;23.70;62.60
26270;DHT22;15937;50.612;6.656;2022-08-11T20:34:38;23.60;63.20
26270;DHT22;15937;50.612;6.656;2022-08-11T20:39:00;23.30;63.70
26270;DHT22;15937;50.612;6.656;2022-08-11T20:43:21;23.40;64.20
26270;DHT22;15937;50.612;6.656;2022-08-11T20:48:02;23.30;64.20
26270;DHT22;15937;50.612;6.656;2022-08-11T20:52:27;23.00;65.40
26270;DHT22;15937;50.612;6.656;2022-08-11T20:56:48;22.90;65.90
26270;DHT22;15937;50.612;6.656;2022-08-11T21:01:16;22.90;66.10
26270;DHT22;15937;50.612;6.656;2022-08-11T21:05:39;22.80;66.60
26270;DHT22;15937;50.612;6.656;2022-08-11T21:10:11;22.60;67.90
26270;DHT22;15937;50.612;6.656;2022-08-11T21:14:33;22.80;67.00
26270;DHT22;15937;50.612;6.656;2022-08-11T21:18:55;22.80;67.80
26270;DHT22;15937;50.612;6.656;2022-08-11T21:23:16;22.60;68.10
26270;DHT22;15937;50.612;6.656;2022-08-11T21:27:38;22.50;69.10
26270;DHT22;15937;50.612;6.656;2022-08-11T21:31:59;22.60;68.90
26270;DHT22;15937;50.612;6.656;2022-08-11T21:36:20;22.60;69.20
26270;DHT22;15937;50.612;6.656;2022-08-11T21:40:41;22.30;70.20
26270;DHT22;15937;50.612;6.656;2022-08-11T21:45:02;22.10;71.40
26270;DHT22;15937;50.612;6.656;2022-08-11T21:49:22;22.00;72.30
26270;DHT22;15937;50.612;6.656;2022-08-11T21:53:45;21.80;72.00
26270;DHT22;15937;50.612;6.656;2022-08-11T21:58:06;21.80;72.40
26270;DHT22;15937;50.612;6.656;2022-08-11T22:02:27;21.70;73.10
26270;DHT22;15937;50.612;6.656;2022-08-11T22:06:54;21.70;74.30
26270;DHT22;15937;50.612;6.656;2022-08-11T22:11:15;21.60;75.30
26270;DHT22;15937;50.612;6.656;2022-08-11T22:15:36;21.60;76.10
26270;DHT22;15937;50.612;6.656;2022-08-11T22:19:56;21.40;76.00
26270;DHT22;15937;50.612;6.656;2022-08-11T22:24:17;21.30;77.50
26270;DHT22;15937;50.612;6.656;2022-08-11T22:28:39;21.50;77.70
26270;DHT22;15937;50.612;6.656;2022-08-11T22:33:00;21.40;78.00
26270;DHT22;15937;50.612;6.656;2022-08-11T22:37:27;21.10;79.20
26270;DHT22;15937;50.612;6.656;2022-08-11T22:41:48;21.20;79.90
26270;DHT22;15937;50.612;6.656;2022-08-11T22:46:09;20.90;80.40
26270;DHT22;15937;50.612;6.656;2022-08-11T22:50:29;20.60;81.70
26270;DHT22;15937;50.612;6.656;2022-08-11T22:54:50;20.80;82.50
26270;DHT22;15937;50.612;6.656;2022-08-11T22:59:11;20.70;83.40
26270;DHT22;15937;50.612;6.656;2022-08-11T23:03:32;20.40;83.40
26270;DHT22;15937;50.612;6.656;2022-08-11T23:07:55;20.30;83.90
26270;DHT22;15937;50.612;6.656;2022-08-11T23:12:15;20.10;84.20
26270;DHT22;15937;50.612;6.656;2022-08-11T23:16:35;20.00;86.80
26270;DHT22;15937;50.612;6.656;2022-08-11T23:20:57;20.00;88.60
26270;DHT22;15937;50.612;6.656;2022-08-11T23:25:18;20.10;89.50
26270;DHT22;15937;50.612;6.656;2022-08-11T23:29:38;20.00;88.20
26270;DHT22;15937;50.612;6.656;2022-08-11T23:34:00;19.90;87.70
26270;DHT22;15937;50.612;6.656;2022-08-11T23:38:41;20.10;87.50
26270;DHT22;15937;50.612;6.656;2022-08-11T23:43:01;19.90;88.80
26270;DHT22;15937;50.612;6.656;2022-08-11T23:47:21;19.70;90.20
26270;DHT22;15937;50.612;6.656;2022-08-11T23:51:51;19.60;90.90
26270;DHT22;15937;50.612;6.656;2022-08-11T23:56:11;19.60;91.50
